sensor_id;sensor_type;location;lat;lon;timestamp;temperature;humidity
27759;DHT22;15148;48.972;12.794;2022-08-03T00:03:29;18.80;99.90
27759;DHT22;15148;48.972;12.794;2022-08-03T00:08:31;18.80;99.90
27759;DHT22;15148;48.972;12.794;2022-08-03T00:13:40;18.90;99.90
27759;DHT22;15148;48.972;12.794;2022-08-03T00:18:42;18.80;99.90
27759;DHT22;15148;48.972;12.794;2022-08-03T00:23:44;18.70;99.90
27759;DHT22;15148;48.972;12.794;2022-08-03T00:28:53;18.70;99.90
27759;DHT22;15148;48.972;12.794;2022-08-03T00:33:55;18.60;99.90
27759;DHT22;15148;48.972;12.794;2022-08-03T00:39:04;18.60;99.90
27759;DHT22;15148;48.972;12.794;2022-08-03T00:44:05;18.50;99.90
27759;DHT22;15148;48.972;12.794;2022-08-03T00:49:07;18.30;99.90
27759;DHT22;15148;48.972;12.794;2022-08-03T00:54:09;18.30;99.90
27759;DHT22;15148;48.972;12.794;2022-08-03T00:59:11;18.30;99.90
27759;DHT22;15148;48.972;12.794;2022-08-03T01:04:15;18.30;99.90
27759;DHT22;15148;48.972;12.794;2022-08-03T01:09:28;18.20;99.90
27759;DHT22;15148;48.972;12.794;2022-08-03T01:14:41;18.30;99.90
27759;DHT22;15148;48.972;12.794;2022-08-03T01:30:28;18.20;99.90
27759;DHT22;15148;48.972;12.794;2022-08-03T01:35:35;18.10;99.90
27759;DHT22;15148;48.972;12.794;2022-08-03T01:40:41;18.10;99.90
27759;DHT22;15148;48.972;12.794;2022-08-03T01:45:46;18.10;99.90
27759;DHT22;15148;48.972;12.794;2022-08-03T01:50:49;18.10;99.90
27759;DHT22;15148;48.972;12.794;2022-08-03T01:55:54;18.00;99.90
27759;DHT22;15148;48.972;12.794;2022-08-03T02:00:57;18.00;99.90
27759;DHT22;15148;48.972;12.794;2022-08-03T02:06:02;18.00;99.90
27759;DHT22;15148;48.972;12.794;2022-08-03T02:11:24;18.00;99.90
27759;DHT22;15148;48.972;12.794;2022-08-03T02:16:28;17.90;99.90
27759;DHT22;15148;48.972;12.794;2022-08-03T02:21:34;17.90;99.90
27759;DHT22;15148;48.972;12.794;2022-08-03T02:26:57;17.90;99.90
27759;DHT22;15148;48.972;12.794;2022-08-03T02:32:00;17.90;99.90
27759;DHT22;15148;48.972;12.794;2022-08-03T02:37:05;17.80;99.90
27759;DHT22;15148;48.972;12.794;2022-08-03T02:42:09;17.80;99.90
27759;DHT22;15148;48.972;12.794;2022-08-03T02:47:14;17.90;99.90
27759;DHT22;15148;48.972;12.794;2022-08-03T02:52:20;17.90;99.90
27759;DHT22;15148;48.972;12.794;2022-08-03T02:57:26;17.90;99.90
27759;DHT22;15148;48.972;12.794;2022-08-03T03:02:29;18.00;99.90
27759;DHT22;15148;48.972;12.794;2022-08-03T03:07:32;17.90;99.90
27759;DHT22;15148;48.972;12.794;2022-08-03T03:12:55;17.80;99.90
27759;DHT22;15148;48.972;12.794;2022-08-03T03:17:58;17.80;99.90
27759;DHT22;15148;48.972;12.794;2022-08-03T03:23:03;17.80;99.90
27759;DHT22;15148;48.972;12.794;2022-08-03T03:28:05;17.80;99.90
27759;DHT22;15148;48.972;12.794;2022-08-03T03:33:08;17.70;99.90
27759;DHT22;15148;48.972;12.794;2022-08-03T03:38:10;17.70;99.90
27759;DHT22;15148;48.972;12.794;2022-08-03T03:43:12;17.60;99.90
27759;DHT22;15148;48.972;12.794;2022-08-03T03:48:14;17.50;99.90
27759;DHT22;15148;48.972;12.794;2022-08-03T03:53:16;17.50;99.90
27759;DHT22;15148;48.972;12.794;2022-08-03T03:58:19;17.40;99.90
27759;DHT22;15148;48.972;12.794;2022-08-03T04:03:25;17.40;99.90
27759;DHT22;15148;48.972;12.794;2022-08-03T04:08:27;17.40;99.90
27759;DHT22;15148;48.972;12.794;2022-08-03T04:19:13;17.40;99.90
27759;DHT22;15148;48.972;12.794;2022-08-03T04:24:29;17.40;99.90
27759;DHT22;15148;48.972;12.794;2022-08-03T04:29:34;17.40;99.90
27759;DHT22;15148;48.972;12.794;2022-08-03T04:34:48;17.50;99.90
27759;DHT22;15148;48.972;12.794;2022-08-03T04:39:52;17.50;99.90
27759;DHT22;15148;48.972;12.794;2022-08-03T04:44:58;17.50;99.90
27759;DHT22;15148;48.972;12.794;2022-08-03T04:50:03;17.50;99.90
27759;DHT22;15148;48.972;12.794;2022-08-03T04:55:30;17.50;99.90
27759;DHT22;15148;48.972;12.794;2022-08-03T05:00:32;17.50;99.90
27759;DHT22;15148;48.972;12.794;2022-08-03T05:05:34;17.70;99.90
27759;DHT22;15148;48.972;12.794;2022-08-03T05:10:51;17.80;99.90
27759;DHT22;15148;48.972;12.794;2022-08-03T05:15:53;18.00;99.90
27759;DHT22;15148;48.972;12.794;2022-08-03T05:20:55;18.10;99.90
27759;DHT22;15148;48.972;12.794;2022-08-03T05:25:56;18.40;99.90
27759;DHT22;15148;48.972;12.794;2022-08-03T05:30:58;18.90;99.90
27759;DHT22;15148;48.972;12.794;2022-08-03T05:36:00;19.50;99.90
27759;DHT22;15148;48.972;12.794;2022-08-03T05:41:05;19.90;99.90
27759;DHT22;15148;48.972;12.794;2022-08-03T05:46:24;20.50;99.90
27759;DHT22;15148;48.972;12.794;2022-08-03T05:51:26;22.00;99.90
27759;DHT22;15148;48.972;12.794;2022-08-03T05:56:29;23.00;99.90
27759;DHT22;15148;48.972;12.794;2022-08-03T06:01:31;24.00;99.90
27759;DHT22;15148;48.972;12.794;2022-08-03T06:06:33;24.60;99.90
27759;DHT22;15148;48.972;12.794;2022-08-03T06:11:36;25.00;99.90
27759;DHT22;15148;48.972;12.794;2022-08-03T06:16:38;24.80;99.90
27759;DHT22;15148;48.972;12.794;2022-08-03T06:21:40;24.20;99.90
27759;DHT22;15148;48.972;12.794;2022-08-03T06:26:42;24.10;99.90
27759;DHT22;15148;48.972;12.794;2022-08-03T06:31:44;23.70;99.90
27759;DHT22;15148;48.972;12.794;2022-08-03T06:36:46;23.70;99.90
27759;DHT22;15148;48.972;12.794;2022-08-03T06:41:49;23.80;99.90
27759;DHT22;15148;48.972;12.794;2022-08-03T06:46:51;23.90;99.90
27759;DHT22;15148;48.972;12.794;2022-08-03T06:51:53;24.10;99.90
27759;DHT22;15148;48.972;12.794;2022-08-03T06:57:06;24.30;99.90
27759;DHT22;15148;48.972;12.794;2022-08-03T07:02:09;24.80;99.90
27759;DHT22;15148;48.972;12.794;2022-08-03T07:07:12;25.00;99.90
27759;DHT22;15148;48.972;12.794;2022-08-03T07:12:14;25.30;99.90
27759;DHT22;15148;48.972;12.794;2022-08-03T07:17:16;25.50;99.90
27759;DHT22;15148;48.972;12.794;2022-08-03T07:22:18;25.70;99.90
27759;DHT22;15148;48.972;12.794;2022-08-03T07:27:20;26.00;99.90
27759;DHT22;15148;48.972;12.794;2022-08-03T07:32:23;26.20;99.90
27759;DHT22;15148;48.972;12.794;2022-08-03T07:37:25;26.30;99.90
27759;DHT22;15148;48.972;12.794;2022-08-03T07:42:28;26.50;99.90
27759;DHT22;15148;48.972;12.794;2022-08-03T07:47:30;26.70;99.90
27759;DHT22;15148;48.972;12.794;2022-08-03T07:52:36;26.80;99.90
27759;DHT22;15148;48.972;12.794;2022-08-03T07:58:01;27.10;99.90
27759;DHT22;15148;48.972;12.794;2022-08-03T08:03:04;27.10;99.90
27759;DHT22;15148;48.972;12.794;2022-08-03T08:08:06;27.20;99.90
27759;DHT22;15148;48.972;12.794;2022-08-03T08:13:08;27.40;99.90
27759;DHT22;15148;48.972;12.794;2022-08-03T08:18:10;27.60;99.90
27759;DHT22;15148;48.972;12.794;2022-08-03T08:23:13;27.70;99.90
27759;DHT22;15148;48.972;12.794;2022-08-03T08:28:35;27.70;99.90
27759;DHT22;15148;48.972;12.794;2022-08-03T08:33:37;27.70;99.90
27759;DHT22;15148;48.972;12.794;2022-08-03T08:38:59;27.80;99.90
27759;DHT22;15148;48.972;12.794;2022-08-03T08:44:02;28.00;99.90
27759;DHT22;15148;48.972;12.794;2022-08-03T08:49:06;28.20;99.90
27759;DHT22;15148;48.972;12.794;2022-08-03T08:54:10;28.40;99.90
27759;DHT22;15148;48.972;12.794;2022-08-03T08:59:13;28.40;99.90
27759;DHT22;15148;48.972;12.794;2022-08-03T09:04:15;28.50;99.90
27759;DHT22;15148;48.972;12.794;2022-08-03T09:09:17;28.70;99.90
27759;DHT22;15148;48.972;12.794;2022-08-03T09:14:39;28.80;99.90
27759;DHT22;15148;48.972;12.794;2022-08-03T09:20:08;29.00;99.90
27759;DHT22;15148;48.972;12.794;2022-08-03T09:25:11;29.20;99.90
27759;DHT22;15148;48.972;12.794;2022-08-03T09:30:25;29.30;99.90
27759;DHT22;15148;48.972;12.794;2022-08-03T09:35:47;29.30;99.90
27759;DHT22;15148;48.972;12.794;2022-08-03T09:40:55;29.40;99.90
27759;DHT22;15148;48.972;12.794;2022-08-03T09:46:03;29.50;99.90
27759;DHT22;15148;48.972;12.794;2022-08-03T09:51:05;29.50;99.90
27759;DHT22;15148;48.972;12.794;2022-08-03T09:56:45;29.60;99.90
27759;DHT22;15148;48.972;12.794;2022-08-03T10:01:50;29.80;99.90
27759;DHT22;15148;48.972;12.794;2022-08-03T10:07:09;29.80;99.90
27759;DHT22;15148;48.972;12.794;2022-08-03T10:12:12;30.00;99.90
27759;DHT22;15148;48.972;12.794;2022-08-03T10:17:14;30.20;99.90
27759;DHT22;15148;48.972;12.794;2022-08-03T10:22:26;30.30;99.10
27759;DHT22;15148;48.972;12.794;2022-08-03T10:27:35;30.30;99.30
27759;DHT22;15148;48.972;12.794;2022-08-03T10:32:45;30.30;98.10
27759;DHT22;15148;48.972;12.794;2022-08-03T10:38:05;30.40;97.40
27759;DHT22;15148;48.972;12.794;2022-08-03T10:43:15;30.60;94.60
27759;DHT22;15148;48.972;12.794;2022-08-03T10:48:19;30.60;93.60
27759;DHT22;15148;48.972;12.794;2022-08-03T10:53:41;30.60;92.90
27759;DHT22;15148;48.972;12.794;2022-08-03T10:58:54;30.70;92.90
27759;DHT22;15148;48.972;12.794;2022-08-03T11:14:19;31.20;92.30
27759;DHT22;15148;48.972;12.794;2022-08-03T11:19:21;31.20;90.70
27759;DHT22;15148;48.972;12.794;2022-08-03T11:40:34;31.30;87.00
27759;DHT22;15148;48.972;12.794;2022-08-03T11:45:37;31.30;87.20
27759;DHT22;15148;48.972;12.794;2022-08-03T11:50:39;31.40;85.80
27759;DHT22;15148;48.972;12.794;2022-08-03T11:55:42;31.40;83.60
27759;DHT22;15148;48.972;12.794;2022-08-03T12:00:48;31.40;82.60
27759;DHT22;15148;48.972;12.794;2022-08-03T12:05:52;31.60;81.90
27759;DHT22;15148;48.972;12.794;2022-08-03T12:10:58;31.60;80.20
27759;DHT22;15148;48.972;12.794;2022-08-03T12:16:01;31.60;81.80
27759;DHT22;15148;48.972;12.794;2022-08-03T12:21:10;31.60;79.50
27759;DHT22;15148;48.972;12.794;2022-08-03T12:26:12;31.60;80.70
27759;DHT22;15148;48.972;12.794;2022-08-03T12:31:14;31.50;78.30
27759;DHT22;15148;48.972;12.794;2022-08-03T12:36:18;31.50;79.20
27759;DHT22;15148;48.972;12.794;2022-08-03T12:41:30;31.60;79.10
27759;DHT22;15148;48.972;12.794;2022-08-03T12:46:37;31.80;77.70
27759;DHT22;15148;48.972;12.794;2022-08-03T13:02:03;31.60;75.40
27759;DHT22;15148;48.972;12.794;2022-08-03T13:07:11;31.60;77.60
27759;DHT22;15148;48.972;12.794;2022-08-03T13:12:16;31.70;75.80
27759;DHT22;15148;48.972;12.794;2022-08-03T13:17:18;31.80;73.10
27759;DHT22;15148;48.972;12.794;2022-08-03T13:22:23;31.70;73.30
27759;DHT22;15148;48.972;12.794;2022-08-03T13:27:26;31.80;73.40
27759;DHT22;15148;48.972;12.794;2022-08-03T13:32:48;31.80;73.50
27759;DHT22;15148;48.972;12.794;2022-08-03T13:37:51;31.90;73.30
27759;DHT22;15148;48.972;12.794;2022-08-03T13:42:52;32.00;73.10
27759;DHT22;15148;48.972;12.794;2022-08-03T13:47:54;31.80;74.80
27759;DHT22;15148;48.972;12.794;2022-08-03T13:52:57;31.90;74.30
27759;DHT22;15148;48.972;12.794;2022-08-03T13:57:58;31.80;72.90
27759;DHT22;15148;48.972;12.794;2022-08-03T14:03:07;31.70;75.30
27759;DHT22;15148;48.972;12.794;2022-08-03T14:08:15;31.60;71.90
27759;DHT22;15148;48.972;12.794;2022-08-03T14:13:17;31.60;72.60
27759;DHT22;15148;48.972;12.794;2022-08-03T14:18:19;31.40;74.10
27759;DHT22;15148;48.972;12.794;2022-08-03T14:23:30;31.30;73.50
27759;DHT22;15148;48.972;12.794;2022-08-03T14:28:34;31.00;73.80
27759;DHT22;15148;48.972;12.794;2022-08-03T14:33:36;30.90;73.00
27759;DHT22;15148;48.972;12.794;2022-08-03T14:38:38;30.80;73.20
27759;DHT22;15148;48.972;12.794;2022-08-03T14:43:39;30.70;73.30
27759;DHT22;15148;48.972;12.794;2022-08-03T14:49:01;30.60;70.00
27759;DHT22;15148;48.972;12.794;2022-08-03T14:54:24;30.50;72.40
27759;DHT22;15148;48.972;12.794;2022-08-03T14:59:26;30.40;71.40
27759;DHT22;15148;48.972;12.794;2022-08-03T15:04:48;30.40;71.60
27759;DHT22;15148;48.972;12.794;2022-08-03T15:09:50;30.30;73.50
27759;DHT22;15148;48.972;12.794;2022-08-03T15:14:52;30.10;73.90
27759;DHT22;15148;48.972;12.794;2022-08-03T15:19:54;30.00;75.50
27759;DHT22;15148;48.972;12.794;2022-08-03T15:25:06;29.90;74.50
27759;DHT22;15148;48.972;12.794;2022-08-03T15:30:28;29.80;75.60
27759;DHT22;15148;48.972;12.794;2022-08-03T15:35:32;29.70;79.30
27759;DHT22;15148;48.972;12.794;2022-08-03T15:40:36;29.60;76.70
27759;DHT22;15148;48.972;12.794;2022-08-03T15:45:38;29.50;76.70
27759;DHT22;15148;48.972;12.794;2022-08-03T15:50:42;29.30;78.40
27759;DHT22;15148;48.972;12.794;2022-08-03T15:55:44;29.20;81.10
27759;DHT22;15148;48.972;12.794;2022-08-03T16:00:46;29.10;81.70
27759;DHT22;15148;48.972;12.794;2022-08-03T16:05:48;29.00;79.70
27759;DHT22;15148;48.972;12.794;2022-08-03T16:10:50;28.90;78.90
27759;DHT22;15148;48.972;12.794;2022-08-03T16:15:53;28.70;85.00
27759;DHT22;15148;48.972;12.794;2022-08-03T16:20:58;28.50;85.10
27759;DHT22;15148;48.972;12.794;2022-08-03T16:26:00;28.30;85.40
27759;DHT22;15148;48.972;12.794;2022-08-03T16:31:08;28.10;87.30
27759;DHT22;15148;48.972;12.794;2022-08-03T16:36:10;27.90;87.60
27759;DHT22;15148;48.972;12.794;2022-08-03T16:41:12;27.80;88.70
27759;DHT22;15148;48.972;12.794;2022-08-03T16:46:13;27.60;89.50
27759;DHT22;15148;48.972;12.794;2022-08-03T16:51:15;27.50;90.40
27759;DHT22;15148;48.972;12.794;2022-08-03T16:56:17;27.40;90.20
27759;DHT22;15148;48.972;12.794;2022-08-03T17:01:19;27.20;91.20
27759;DHT22;15148;48.972;12.794;2022-08-03T17:06:26;27.20;90.10
27759;DHT22;15148;48.972;12.794;2022-08-03T17:11:37;27.10;91.20
27759;DHT22;15148;48.972;12.794;2022-08-03T17:16:45;27.10;91.40
27759;DHT22;15148;48.972;12.794;2022-08-03T17:22:00;27.00;92.80
27759;DHT22;15148;48.972;12.794;2022-08-03T17:27:07;26.90;92.90
27759;DHT22;15148;48.972;12.794;2022-08-03T17:32:32;26.80;93.50
27759;DHT22;15148;48.972;12.794;2022-08-03T17:37:35;26.60;95.70
27759;DHT22;15148;48.972;12.794;2022-08-03T17:42:59;26.40;95.90
27759;DHT22;15148;48.972;12.794;2022-08-03T17:48:01;26.20;96.60
27759;DHT22;15148;48.972;12.794;2022-08-03T17:53:04;26.00;98.70
27759;DHT22;15148;48.972;12.794;2022-08-03T17:59:19;25.70;99.60
27759;DHT22;15148;48.972;12.794;2022-08-03T18:03:59;25.50;99.90
27759;DHT22;15148;48.972;12.794;2022-08-03T18:09:12;25.30;99.90
27759;DHT22;15148;48.972;12.794;2022-08-03T18:14:42;25.10;99.90
27759;DHT22;15148;48.972;12.794;2022-08-03T18:20:01;24.90;99.90
27759;DHT22;15148;48.972;12.794;2022-08-03T18:25:13;24.70;99.90
27759;DHT22;15148;48.972;12.794;2022-08-03T18:30:19;24.60;99.90
27759;DHT22;15148;48.972;12.794;2022-08-03T18:35:28;24.40;99.90
27759;DHT22;15148;48.972;12.794;2022-08-03T18:40:50;24.40;99.90
27759;DHT22;15148;48.972;12.794;2022-08-03T18:45:54;24.10;99.90
27759;DHT22;15148;48.972;12.794;2022-08-03T18:51:05;23.90;99.90
27759;DHT22;15148;48.972;12.794;2022-08-03T18:56:26;23.80;99.90
27759;DHT22;15148;48.972;12.794;2022-08-03T19:01:43;23.60;99.90
27759;DHT22;15148;48.972;12.794;2022-08-03T19:07:07;23.50;99.90
27759;DHT22;15148;48.972;12.794;2022-08-03T19:12:16;23.40;99.90
27759;DHT22;15148;48.972;12.794;2022-08-03T19:17:38;23.30;99.90
27759;DHT22;15148;48.972;12.794;2022-08-03T19:22:40;23.30;99.90
27759;DHT22;15148;48.972;12.794;2022-08-03T19:27:47;23.20;99.90
27759;DHT22;15148;48.972;12.794;2022-08-03T19:32:49;23.10;99.90
27759;DHT22;15148;48.972;12.794;2022-08-03T19:37:51;23.10;99.90
27759;DHT22;15148;48.972;12.794;2022-08-03T19:43:02;22.90;99.90
27759;DHT22;15148;48.972;12.794;2022-08-03T19:48:08;22.90;99.90
27759;DHT22;15148;48.972;12.794;2022-08-03T19:53:12;22.80;99.90
27759;DHT22;15148;48.972;12.794;2022-08-03T19:58:15;22.80;99.90
27759;DHT22;15148;48.972;12.794;2022-08-03T20:03:27;22.80;99.90
27759;DHT22;15148;48.972;12.794;2022-08-03T20:08:52;22.70;99.90
27759;DHT22;15148;48.972;12.794;2022-08-03T20:13:56;22.60;99.90
27759;DHT22;15148;48.972;12.794;2022-08-03T20:18:59;22.60;99.90
27759;DHT22;15148;48.972;12.794;2022-08-03T20:24:03;22.50;99.90
27759;DHT22;15148;48.972;12.794;2022-08-03T20:29:40;22.40;99.90
27759;DHT22;15148;48.972;12.794;2022-08-03T20:35:03;22.20;99.90
27759;DHT22;15148;48.972;12.794;2022-08-03T20:40:10;22.10;99.90
27759;DHT22;15148;48.972;12.794;2022-08-03T20:45:13;22.00;99.90
27759;DHT22;15148;48.972;12.794;2022-08-03T20:50:39;22.00;99.90
27759;DHT22;15148;48.972;12.794;2022-08-03T20:55:44;21.90;99.90
27759;DHT22;15148;48.972;12.794;2022-08-03T21:01:02;21.70;99.90
27759;DHT22;15148;48.972;12.794;2022-08-03T21:06:04;21.60;99.90
27759;DHT22;15148;48.972;12.794;2022-08-03T21:11:15;21.50;99.90
27759;DHT22;15148;48.972;12.794;2022-08-03T21:16:18;21.60;99.90
27759;DHT22;15148;48.972;12.794;2022-08-03T21:21:22;21.40;99.90
27759;DHT22;15148;48.972;12.794;2022-08-03T21:26:25;21.40;99.90
27759;DHT22;15148;48.972;12.794;2022-08-03T21:31:27;21.40;99.90
27759;DHT22;15148;48.972;12.794;2022-08-03T21:36:32;21.30;99.90
27759;DHT22;15148;48.972;12.794;2022-08-03T21:41:36;21.20;99.90
27759;DHT22;15148;48.972;12.794;2022-08-03T21:46:39;21.10;99.90
27759;DHT22;15148;48.972;12.794;2022-08-03T21:51:43;20.90;99.90
27759;DHT22;15148;48.972;12.794;2022-08-03T21:56:46;20.80;99.90
27759;DHT22;15148;48.972;12.794;2022-08-03T22:01:50;20.70;99.90
27759;DHT22;15148;48.972;12.794;2022-08-03T22:06:58;20.60;99.90
27759;DHT22;15148;48.972;12.794;2022-08-03T22:12:01;20.50;99.90
27759;DHT22;15148;48.972;12.794;2022-08-03T22:17:05;20.40;99.90
27759;DHT22;15148;48.972;12.794;2022-08-03T22:22:09;20.40;99.90
27759;DHT22;15148;48.972;12.794;2022-08-03T22:27:15;20.40;99.90
27759;DHT22;15148;48.972;12.794;2022-08-03T22:32:33;20.30;99.90
27759;DHT22;15148;48.972;12.794;2022-08-03T22:37:35;20.30;99.90
27759;DHT22;15148;48.972;12.794;2022-08-03T22:42:40;20.30;99.90
27759;DHT22;15148;48.972;12.794;2022-08-03T22:47:42;20.20;99.90
27759;DHT22;15148;48.972;12.794;2022-08-03T22:52:44;20.10;99.90
27759;DHT22;15148;48.972;12.794;2022-08-03T22:57:46;20.20;99.90
27759;DHT22;15148;48.972;12.794;2022-08-03T23:02:59;20.00;99.90
27759;DHT22;15148;48.972;12.794;2022-08-03T23:08:03;20.00;99.90
27759;DHT22;15148;48.972;12.794;2022-08-03T23:13:06;19.90;99.90
27759;DHT22;15148;48.972;12.794;2022-08-03T23:18:08;19.80;99.90
27759;DHT22;15148;48.972;12.794;2022-08-03T23:23:10;19.70;99.90
27759;DHT22;15148;48.972;12.794;2022-08-03T23:28:14;19.70;99.90
27759;DHT22;15148;48.972;12.794;2022-08-03T23:33:17;19.60;99.90
27759;DHT22;15148;48.972;12.794;2022-08-03T23:38:19;19.50;99.90
27759;DHT22;15148;48.972;12.794;2022-08-03T23:43:25;19.50;99.90
27759;DHT22;15148;48.972;12.794;2022-08-03T23:48:48;19.40;99.90
27759;DHT22;15148;48.972;12.794;2022-08-03T23:53:53;19.30;99.90
